Time;durP1;ratioP1;P1;durP2;ratioP2;P2;SDS_P1;SDS_P2;PMS_P1;PMS_P2;Temp;Humidity;BMP_temperature;BMP_pressure;BME280_temperature;BME280_humidity;BME280_pressure;Samples;Min_cycle;Max_cycle;Signal;HPM_P1;HPM_P2
2022/01/01 00:02:21;;;;;;;8.27;6.40;;;;;;;9.10;100.00;97136.56;4972828;28;20474;-74
2022/01/01 00:05:05;;;;;;;6.40;5.33;;;;;;;9.02;100.00;97134.63;4973131;28;20467;-74
2022/01/01 00:07:34;;;;;;;7.80;5.70;;;;;;;9.11;100.00;97146.03;4974031;28;20994;-74
2022/01/01 00:10:01;;;;;;;5.83;5.00;;;;;;;9.11;100.00;97138.13;4974118;28;20467;-74
2022/01/01 00:12:28;;;;;;;6.60;4.47;;;;;;;8.95;100.00;97113.94;4990277;28;20531;-74
2022/01/01 00:14:55;;;;;;;5.57;4.97;;;;;;;9.00;100.00;97128.84;4990313;28;20479;-74
2022/01/01 00:17:21;;;;;;;7.20;5.67;;;;;;;8.98;100.00;97129.16;4990271;28;20854;-75
2022/01/01 00:19:48;;;;;;;10.27;8.50;;;;;;;8.91;100.00;97134.03;4985647;28;20453;-74
2022/01/01 00:22:14;;;;;;;9.60;8.30;;;;;;;8.92;100.00;97137.44;4970937;28;20441;-75
2022/01/01 00:24:41;;;;;;;10.20;7.50;;;;;;;8.90;100.00;97140.38;4954627;28;20445;-74
2022/01/01 00:27:08;;;;;;;10.20;8.57;;;;;;;8.91;100.00;97149.84;4970491;28;20480;-74
2022/01/01 00:29:35;;;;;;;7.33;6.53;;;;;;;9.00;100.00;97163.91;4954720;28;21005;-74
2022/01/01 00:32:01;;;;;;;9.07;6.50;;;;;;;8.89;100.00;97150.16;4970884;28;20444;-74
2022/01/01 00:34:34;;;;;;;10.17;7.60;;;;;;;8.98;100.00;97166.06;4970802;28;20428;-74
2022/01/01 00:37:01;;;;;;;11.07;6.67;;;;;;;8.83;100.00;97145.28;5045315;28;20453;-74
2022/01/01 00:39:28;;;;;;;6.87;5.63;;;;;;;8.96;100.00;97168.22;5094044;28;20422;-74
2022/01/01 00:41:54;;;;;;;6.57;5.97;;;;;;;8.77;100.00;97151.72;5093705;28;20442;-74
2022/01/01 00:44:21;;;;;;;8.07;7.20;;;;;;;8.95;100.00;97176.41;5093647;28;21011;-74
2022/01/01 00:46:48;;;;;;;8.00;6.50;;;;;;;8.81;100.00;97150.84;5093879;28;20434;-74
2022/01/01 00:49:15;;;;;;;7.10;6.43;;;;;;;8.81;100.00;97156.13;5093668;28;20462;-74
2022/01/01 00:51:42;;;;;;;6.60;5.93;;;;;;;8.94;100.00;97182.75;5093736;28;20511;-74
2022/01/01 00:54:09;;;;;;;9.53;6.40;;;;;;;8.85;100.00;97153.69;5093699;28;20434;-74
2022/01/01 00:56:35;;;;;;;6.27;5.53;;;;;;;8.93;100.00;97187.25;5093885;28;20509;-74
2022/01/01 00:59:02;;;;;;;7.20;6.50;;;;;;;8.79;100.00;97160.91;5093477;28;20458;-74
2022/01/01 01:01:29;;;;;;;8.07;7.30;;;;;;;8.87;100.00;97177.91;5076678;28;20431;-75
2022/01/01 01:03:56;;;;;;;6.97;6.37;;;;;;;8.93;100.00;97176.72;5076897;28;20524;-74
2022/01/01 01:06:22;;;;;;;6.97;6.27;;;;;;;8.91;100.00;97181.50;5093363;28;20860;-74
2022/01/01 01:08:51;;;;;;;7.40;6.53;;;;;;;8.91;100.00;97178.09;5111666;28;20458;-74
2022/01/01 01:11:18;;;;;;;6.80;6.10;;;;;;;8.84;100.00;97168.72;5090079;28;20503;-74
2022/01/01 01:13:50;;;;;;;7.03;5.90;;;;;;;8.83;100.00;97180.34;5073880;28;20447;-74
2022/01/01 01:16:17;;;;;;;7.50;5.43;;;;;;;8.82;100.00;97172.72;5096717;28;20420;-74
2022/01/01 01:18:44;;;;;;;6.60;5.53;;;;;;;8.90;100.00;97179.94;5098059;28;20457;-74
2022/01/01 01:21:11;;;;;;;8.77;6.97;;;;;;;8.97;100.00;97188.25;5098068;28;20926;-74
2022/01/01 01:23:38;;;;;;;6.77;5.43;;;;;;;8.86;100.00;97176.34;5079815;28;20554;-74
2022/01/01 01:26:04;;;;;;;8.73;6.50;;;;;;;8.98;100.00;97202.22;5063223;28;20430;-72
2022/01/01 01:28:31;;;;;;;8.37;6.77;;;;;;;8.93;100.00;97194.41;5079639;28;20520;-73
2022/01/01 01:30:58;;;;;;;7.03;6.20;;;;;;;9.00;100.00;97203.50;5096841;28;20431;-73
2022/01/01 01:33:25;;;;;;;6.87;5.90;;;;;;;8.88;100.00;97184.72;5079895;28;20473;-73
2022/01/01 01:35:51;;;;;;;7.83;7.03;;;;;;;8.87;100.00;97180.53;5079865;28;20439;-73
2022/01/01 01:38:18;;;;;;;12.13;7.23;;;;;;;8.94;100.00;97188.03;5079820;28;20439;-73
2022/01/01 01:40:45;;;;;;;9.87;6.50;;;;;;;8.86;100.00;97185.03;5079288;27;20443;-73
2022/01/01 01:43:13;;;;;;;10.50;6.77;;;;;;;8.93;100.00;97192.53;5081706;28;20472;-73
2022/01/01 01:45:42;;;;;;;9.93;7.10;;;;;;;8.87;100.00;97186.59;5099868;28;20882;-73
2022/01/01 01:48:08;;;;;;;9.70;6.47;;;;;;;8.90;100.00;97193.13;5100026;28;20931;-73
2022/01/01 01:50:37;;;;;;;7.43;6.30;;;;;;;8.78;100.00;97172.53;5099794;28;20957;-73
2022/01/01 01:53:06;;;;;;;7.53;6.87;;;;;;;8.98;100.00;97208.28;5099905;28;20438;-73
2022/01/01 01:55:33;;;;;;;8.80;7.10;;;;;;;8.85;100.00;97187.97;5118112;28;20430;-73
2022/01/01 01:58:00;;;;;;;8.20;7.27;;;;;;;8.83;100.00;97184.84;5099645;28;20834;-73
2022/01/01 02:02:54;;;;;;;10.23;7.67;;;;;;;8.98;100.00;97210.91;5118003;28;20448;-73
2022/01/01 02:05:21;;;;;;;9.80;7.00;;;;;;;8.96;100.00;97197.25;5118342;28;20465;-73
2022/01/01 02:08:09;;;;;;;8.90;7.80;;;;;;;8.98;100.00;97210.91;5099834;28;20508;-72
2022/01/01 02:10:36;;;;;;;9.90;8.17;;;;;;;8.89;100.00;97186.28;5013864;28;20508;-73
2022/01/01 02:13:19;;;;;;;10.27;7.27;;;;;;;8.89;100.00;97192.34;4995566;28;20451;-73
2022/01/01 02:18:19;;;;;;;10.10;8.17;;;;;;;9.00;100.00;97194.78;4979382;28;20466;-73
2022/01/01 02:20:50;;;;;;;8.93;8.07;;;;;;;9.06;100.00;97202.31;4979195;28;20447;-73
2022/01/01 02:23:22;;;;;;;13.60;8.60;;;;;;;9.07;100.00;97213.63;4995555;28;20420;-72
2022/01/01 02:25:50;;;;;;;9.83;7.80;;;;;;;9.03;100.00;97202.91;4979470;28;21305;-73
2022/01/01 02:28:16;;;;;;;9.83;8.67;;;;;;;9.10;100.00;97207.78;4974767;28;20498;-72
2022/01/01 02:30:43;;;;;;;9.10;7.70;;;;;;;8.98;100.00;97194.31;4976146;28;20538;-73
2022/01/01 02:33:10;;;;;;;10.37;7.43;;;;;;;9.02;100.00;97222.44;4992281;28;20436;-73
2022/01/01 02:35:37;;;;;;;8.80;7.20;;;;;;;9.13;100.00;97220.38;4975886;28;21001;-73
2022/01/01 02:38:06;;;;;;;10.60;8.47;;;;;;;9.10;100.00;97219.13;4992246;28;20534;-73
2022/01/01 02:40:32;;;;;;;7.40;6.70;;;;;;;9.04;100.00;97208.94;4977115;28;20463;-73
2022/01/01 02:42:59;;;;;;;7.30;6.60;;;;;;;8.88;100.00;97195.28;4976101;28;21005;-73
2022/01/01 02:45:28;;;;;;;9.17;7.60;;;;;;;9.06;100.00;97207.56;4991897;28;20447;-72
2022/01/01 02:47:55;;;;;;;8.30;7.20;;;;;;;9.12;100.00;97210.91;5044353;28;20467;-73
2022/01/01 02:50:22;;;;;;;9.10;6.43;;;;;;;9.04;100.00;97195.75;5075587;28;20436;-73
2022/01/01 02:52:49;;;;;;;7.73;6.47;;;;;;;9.13;100.00;97207.97;5075562;28;20962;-73
2022/01/01 02:55:16;;;;;;;9.30;5.70;;;;;;;9.12;100.00;97201.13;5075608;28;20435;-73
2022/01/01 02:57:42;;;;;;;7.70;5.90;;;;;;;9.23;100.00;97222.84;5075254;28;20514;-73
2022/01/01 03:00:09;;;;;;;9.23;6.77;;;;;;;9.13;100.00;97204.56;5075531;28;20786;-73
2022/01/01 03:02:36;;;;;;;6.83;6.23;;;;;;;9.25;100.00;97222.53;5093495;28;20475;-73
2022/01/01 03:05:03;;;;;;;6.27;5.67;;;;;;;9.19;100.00;97225.25;5058821;28;20431;-73
2022/01/01 03:07:35;;;;;;;8.80;6.10;;;;;;;9.18;100.00;97221.06;5107883;28;21033;-73
2022/01/01 03:10:02;;;;;;;7.97;5.90;;;;;;;9.19;100.00;97230.53;5078401;28;20454;-73
2022/01/01 03:12:29;;;;;;;8.63;6.13;;;;;;;9.19;100.00;97235.81;5113785;28;20426;-73
2022/01/01 03:14:55;;;;;;;7.30;6.07;;;;;;;9.15;100.00;97241.97;5095216;28;20438;-73
2022/01/01 03:17:22;;;;;;;8.33;6.40;;;;;;;9.09;100.00;97222.06;5095341;28;20527;-72
2022/01/01 03:19:49;;;;;;;7.30;6.57;;;;;;;9.20;100.00;97233.94;5095350;28;20464;-73
2022/01/01 03:22:15;;;;;;;6.90;5.70;;;;;;;9.22;100.00;97252.16;5113556;28;20475;-73
2022/01/01 03:24:42;;;;;;;8.23;6.07;;;;;;;9.22;100.00;97252.94;5113589;28;20968;-73
2022/01/01 03:27:09;;;;;;;9.27;6.80;;;;;;;9.23;100.00;97256.34;5078207;28;20443;-73
2022/01/01 03:29:35;;;;;;;7.53;6.57;;;;;;;9.09;100.00;97238.66;5094923;28;20544;-73
2022/01/01 03:32:02;;;;;;;6.40;5.33;;;;;;;9.24;100.00;97255.28;5078357;28;20934;-73
2022/01/01 03:34:29;;;;;;;8.63;6.03;;;;;;;9.14;100.00;97243.06;5072573;28;20534;-72
2022/01/01 03:36:56;;;;;;;7.20;6.27;;;;;;;9.24;100.00;97261.34;5075093;28;20454;-73
2022/01/01 03:39:23;;;;;;;7.27;6.13;;;;;;;9.23;100.00;97259.78;5074619;28;20500;-73
2022/01/01 03:41:50;;;;;;;8.80;5.70;;;;;;;9.24;100.00;97257.91;5074638;28;20504;-73
2022/01/01 03:44:17;;;;;;;7.67;5.70;;;;;;;9.26;100.00;97267.09;5074894;28;20462;-73
2022/01/01 03:46:45;;;;;;;6.80;5.47;;;;;;;9.14;100.00;97253.59;5074334;28;20443;-73
2022/01/01 03:49:12;;;;;;;7.80;6.50;;;;;;;9.18;100.00;97259.84;5074478;28;20463;-73
2022/01/01 03:51:39;;;;;;;6.43;5.30;;;;;;;9.14;100.00;97248.34;5057978;28;20533;-73
2022/01/01 03:54:06;;;;;;;6.43;5.80;;;;;;;9.14;100.00;97254.38;5092519;28;20444;-72
2022/01/01 03:56:32;;;;;;;6.87;5.77;;;;;;;9.25;100.00;97272.66;5074432;28;20431;-73
2022/01/01 03:58:59;;;;;;;4.90;4.50;;;;;;;9.25;100.00;97264.75;5073723;28;20463;-73
2022/01/01 04:01:26;;;;;;;13.60;6.80;;;;;;;9.15;100.00;97252.53;5057816;28;20459;-73
2022/01/01 04:03:53;;;;;;;9.43;4.30;;;;;;;9.13;100.00;97239.63;5074200;28;20442;-74
2022/01/01 04:06:19;;;;;;;14.20;6.37;;;;;;;9.15;100.00;97247.25;5092400;28;20431;-74
2022/01/01 04:08:46;;;;;;;6.20;5.60;;;;;;;9.17;100.00;97248.50;5057419;28;20521;-73
2022/01/01 04:11:13;;;;;;;9.33;5.80;;;;;;;9.04;100.00;97228.19;5074053;28;20471;-73
2022/01/01 04:13:39;;;;;;;5.63;4.80;;;;;;;9.25;100.00;97257.63;5074207;28;20455;-74
2022/01/01 04:16:06;;;;;;;5.97;5.37;;;;;;;9.17;100.00;97245.88;5074263;28;20979;-74
2022/01/01 04:18:39;;;;;;;3.67;3.27;;;;;;;9.20;100.00;97257.69;5074154;28;20439;-74
2022/01/01 04:21:10;;;;;;;6.10;4.17;;;;;;;9.10;100.00;97255.28;5073821;28;20439;-73
2022/01/01 04:23:38;;;;;;;5.00;4.60;;;;;;;9.23;100.00;97264.28;5078336;28;20474;-74
2022/01/01 04:26:07;;;;;;;5.20;4.73;;;;;;;9.18;100.00;97265.91;5073417;28;20447;-74
2022/01/01 04:28:35;;;;;;;4.93;4.33;;;;;;;9.17;100.00;97266.22;5073439;28;20490;-74
2022/01/01 04:31:03;;;;;;;6.40;5.13;;;;;;;9.21;100.00;97263.75;5073597;28;20443;-73
2022/01/01 04:33:30;;;;;;;5.53;4.63;;;;;;;9.24;100.00;97263.97;5073700;28;20811;-74
2022/01/01 04:35:56;;;;;;;4.57;4.13;;;;;;;9.28;100.00;97267.56;5056897;28;20875;-73
2022/01/01 04:40:52;;;;;;;5.83;4.70;;;;;;;9.30;100.00;97265.41;5073539;28;20467;-74
2022/01/01 04:43:19;;;;;;;4.57;4.17;;;;;;;9.14;100.00;97254.38;5091735;28;20999;-74
2022/01/01 04:45:45;;;;;;;7.47;4.30;;;;;;;9.27;100.00;97263.38;5073379;28;20442;-73
2022/01/01 04:48:12;;;;;;;5.03;4.63;;;;;;;9.17;100.00;97260.94;5092729;28;20490;-74
2022/01/01 04:50:39;;;;;;;5.50;4.97;;;;;;;9.25;100.00;97278.72;5072905;28;21235;-73
2022/01/01 04:53:05;;;;;;;4.90;3.80;;;;;;;9.17;100.00;97264.34;5091553;28;20522;-73
2022/01/01 04:55:33;;;;;;;6.50;4.73;;;;;;;9.24;100.00;97268.47;5056857;28;20466;-73
2022/01/01 04:57:59;;;;;;;4.97;4.27;;;;;;;9.16;100.00;97248.81;5073246;28;20502;-73
2022/01/01 05:00:26;;;;;;;8.23;5.30;;;;;;;9.09;100.00;97243.94;5073250;28;20497;-73
2022/01/01 05:02:53;;;;;;;5.73;5.10;;;;;;;9.16;100.00;97273.34;5073174;28;20447;-74
2022/01/01 05:05:20;;;;;;;5.93;4.57;;;;;;;9.22;100.00;97281.97;5073255;28;20435;-73
2022/01/01 05:07:46;;;;;;;6.20;4.00;;;;;;;9.10;100.00;97265.84;5090048;28;20509;-73
2022/01/01 05:10:13;;;;;;;8.60;4.40;;;;;;;9.12;100.00;97267.09;5073182;28;20455;-73
2022/01/01 05:12:40;;;;;;;5.53;4.10;;;;;;;9.13;100.00;97268.66;5073994;28;20481;-73
2022/01/01 05:15:07;;;;;;;4.53;4.07;;;;;;;9.07;100.00;97250.56;5073006;28;20489;-72
2022/01/01 05:17:34;;;;;;;5.70;4.03;;;;;;;9.10;100.00;97265.84;5072969;28;20483;-73
2022/01/01 05:20:02;;;;;;;5.33;4.80;;;;;;;9.11;100.00;97275.31;5073298;28;20423;-73
2022/01/01 05:22:29;;;;;;;5.60;4.60;;;;;;;9.15;100.00;97271.78;5073109;28;20527;-73
2022/01/01 05:24:59;;;;;;;4.80;4.37;;;;;;;9.19;100.00;97272.75;5073110;28;20459;-73
2022/01/01 05:27:27;;;;;;;5.17;4.30;;;;;;;9.07;100.00;97266.41;5091272;28;20459;-72
2022/01/01 05:29:54;;;;;;;6.70;4.60;;;;;;;9.15;100.00;97292.09;5072930;28;20492;-73
2022/01/01 05:32:21;;;;;;;5.40;4.00;;;;;;;9.09;100.00;97280.09;5091233;28;20436;-73
2022/01/01 05:34:47;;;;;;;5.63;4.10;;;;;;;9.07;100.00;97285.63;5078746;28;20534;-73
2022/01/01 05:37:14;;;;;;;7.80;3.57;;;;;;;9.14;100.00;97288.69;5089805;28;20471;-73
2022/01/01 05:39:41;;;;;;;6.30;4.43;;;;;;;9.09;100.00;97290.66;5073059;28;20484;-73
2022/01/01 05:42:08;;;;;;;4.20;3.73;;;;;;;8.98;100.00;97268.16;5091124;28;20427;-73
2022/01/01 05:44:35;;;;;;;6.97;4.70;;;;;;;9.11;100.00;97291.91;5073082;28;20459;-73
2022/01/01 05:47:01;;;;;;;5.10;3.90;;;;;;;9.07;100.00;97290.13;5073121;28;20474;-73
2022/01/01 05:49:28;;;;;;;6.87;4.10;;;;;;;9.08;100.00;97295.16;5072928;28;20463;-73
2022/01/01 05:52:15;;;;;;;7.10;6.50;;;;;;;9.02;100.00;97285.75;5072814;28;20432;-73
2022/01/01 05:54:42;;;;;;;8.87;4.43;;;;;;;9.03;100.00;97289.16;5048549;28;20470;-73
2022/01/01 05:57:08;;;;;;;6.40;5.00;;;;;;;9.02;100.00;97284.97;5049210;28;20592;-73
2022/01/01 05:59:40;;;;;;;5.80;4.93;;;;;;;8.82;100.00;97255.25;5051575;28;20471;-73
2022/01/01 06:02:06;;;;;;;5.13;4.30;;;;;;;8.91;100.00;97271.19;5069199;28;20439;-73
2022/01/01 06:04:33;;;;;;;4.30;3.90;;;;;;;8.98;100.00;97282.13;5071932;28;20437;-73
2022/01/01 06:07:00;;;;;;;8.40;4.87;;;;;;;8.95;100.00;97276.63;5072137;28;20489;-73
2022/01/01 06:09:27;;;;;;;5.73;4.53;;;;;;;8.93;100.00;97284.84;5071944;28;20464;-73
2022/01/01 06:11:53;;;;;;;7.57;5.30;;;;;;;8.91;100.00;97278.31;5071852;28;20440;-72
2022/01/01 06:14:22;;;;;;;9.03;4.90;;;;;;;8.91;100.00;97281.72;5071315;28;20498;-73
2022/01/01 06:16:50;;;;;;;4.50;3.73;;;;;;;8.96;100.00;97294.06;5050497;28;20436;-73
2022/01/01 06:19:17;;;;;;;5.83;5.07;;;;;;;9.03;100.00;97300.50;5046016;28;20544;-73
2022/01/01 06:21:43;;;;;;;6.17;4.87;;;;;;;9.01;100.00;97307.91;5039172;28;20483;-73
2022/01/01 06:24:11;;;;;;;5.37;4.87;;;;;;;8.99;100.00;97307.44;5071759;28;20436;-73
2022/01/01 06:26:37;;;;;;;8.40;5.27;;;;;;;9.01;100.00;97310.56;5057876;28;20457;-73
2022/01/01 06:29:04;;;;;;;4.93;4.37;;;;;;;9.01;100.00;97307.91;5050810;28;20520;-73
2022/01/01 06:31:31;;;;;;;5.20;4.80;;;;;;;8.95;100.00;97303.00;5071552;28;20801;-73
2022/01/01 06:33:58;;;;;;;7.53;4.10;;;;;;;8.93;100.00;97299.88;5096378;28;20507;-73
2022/01/01 06:36:27;;;;;;;6.77;4.60;;;;;;;9.05;100.00;97321.31;5096231;28;20535;-73
2022/01/01 06:38:54;;;;;;;5.37;4.93;;;;;;;9.04;100.00;97323.16;5096304;28;20507;-73
2022/01/01 06:41:24;;;;;;;5.60;4.73;;;;;;;8.92;100.00;97299.09;5096114;28;20446;-73
2022/01/01 06:43:52;;;;;;;5.20;4.70;;;;;;;9.03;100.00;97320.81;5077569;28;20439;-73
2022/01/01 06:46:19;;;;;;;6.03;4.30;;;;;;;8.69;100.00;97271.84;5093955;28;20424;-73
2022/01/01 06:48:46;;;;;;;4.93;4.53;;;;;;;9.00;100.00;97316.91;5075520;28;20467;-73
2022/01/01 06:51:13;;;;;;;5.70;5.20;;;;;;;8.95;100.00;97313.56;5093499;28;20427;-73
2022/01/01 06:53:39;;;;;;;6.77;4.43;;;;;;;8.91;100.00;97309.94;5075468;28;20535;-73
2022/01/01 06:56:06;;;;;;;5.63;4.27;;;;;;;8.94;100.00;97325.97;5093948;28;20465;-73
2022/01/01 06:58:37;;;;;;;8.43;4.83;;;;;;;8.90;100.00;97332.91;5093554;28;20526;-74
2022/01/01 07:01:05;;;;;;;5.00;4.30;;;;;;;8.97;100.00;97341.25;5075676;28;20439;-73
2022/01/01 07:03:32;;;;;;;9.23;5.50;;;;;;;8.96;100.00;97344.94;5058810;28;20435;-73
2022/01/01 07:06:00;;;;;;;5.30;4.80;;;;;;;8.95;100.00;97342.56;5075282;28;20474;-73
2022/01/01 07:08:26;;;;;;;6.17;5.40;;;;;;;8.95;100.00;97348.66;5058679;28;20524;-73
2022/01/01 07:10:53;;;;;;;8.17;5.30;;;;;;;8.93;100.00;97348.16;5079831;28;20494;-73
2022/01/01 07:13:20;;;;;;;5.23;4.73;;;;;;;8.92;100.00;97341.31;5057968;28;20443;-72
2022/01/01 07:15:47;;;;;;;7.83;5.57;;;;;;;8.77;100.00;97329.16;5075128;28;20471;-73
2022/01/01 07:18:13;;;;;;;5.60;4.60;;;;;;;8.83;100.00;97322.75;5075077;28;20463;-73
2022/01/01 07:20:40;;;;;;;5.73;4.90;;;;;;;8.95;100.00;97342.56;5058434;28;20467;-73
2022/01/01 07:23:07;;;;;;;6.13;5.53;;;;;;;8.94;100.00;97354.97;5074998;28;20973;-73
2022/01/01 07:25:33;;;;;;;6.00;5.50;;;;;;;8.79;100.00;97329.66;5093142;28;20802;-74
2022/01/01 07:28:00;;;;;;;9.43;5.07;;;;;;;8.95;100.00;97361.03;5092986;28;20509;-73
2022/01/01 07:30:27;;;;;;;6.30;5.70;;;;;;;8.70;100.00;97322.72;5093121;28;20545;-73
2022/01/01 07:32:53;;;;;;;6.40;4.83;;;;;;;8.91;100.00;97355.56;5074918;28;20482;-73
2022/01/01 07:35:21;;;;;;;7.23;5.23;;;;;;;8.93;100.00;97366.59;5074595;28;20482;-73
2022/01/01 07:37:48;;;;;;;6.73;5.77;;;;;;;9.00;100.00;97376.81;5074993;28;20458;-75
2022/01/01 07:40:17;;;;;;;6.43;4.83;;;;;;;8.93;100.00;97385.06;5058145;28;20947;-73
2022/01/01 07:42:44;;;;;;;5.90;5.17;;;;;;;8.96;100.00;97395.06;5092817;28;20930;-73
2022/01/01 07:45:12;;;;;;;5.80;5.30;;;;;;;8.84;100.00;97384.97;5074543;28;21114;-72
2022/01/01 07:47:39;;;;;;;5.93;5.43;;;;;;;8.83;100.00;97399.22;5074371;28;21057;-73
2022/01/01 07:50:08;;;;;;;5.80;5.23;;;;;;;8.93;100.00;97408.81;5092699;28;20478;-73
2022/01/01 07:52:34;;;;;;;7.50;6.60;;;;;;;8.91;100.00;97403.03;5057677;28;20431;-73
2022/01/01 07:55:01;;;;;;;9.70;5.33;;;;;;;8.79;100.00;97389.53;5074316;28;20465;-73
2022/01/01 07:57:28;;;;;;;5.73;5.20;;;;;;;8.77;100.00;97389.81;5074482;28;20443;-73
2022/01/01 07:59:55;;;;;;;5.43;4.77;;;;;;;8.83;100.00;97399.22;5080682;28;20450;-74
2022/01/01 08:02:21;;;;;;;7.80;5.87;;;;;;;8.74;100.00;97387.75;5112716;28;20528;-73
2022/01/01 08:04:48;;;;;;;6.20;5.50;;;;;;;8.92;100.00;97409.09;5112769;28;20465;-73
2022/01/01 08:07:15;;;;;;;6.40;5.33;;;;;;;8.94;100.00;97401.69;5077514;28;20488;-73
2022/01/01 08:10:03;;;;;;;7.63;6.00;;;;;;;8.91;100.00;97407.53;5112672;28;20963;-73
2022/01/01 08:12:30;;;;;;;9.67;6.07;;;;;;;8.93;100.00;97402.75;5077521;28;20478;-73
2022/01/01 08:14:57;;;;;;;6.57;5.67;;;;;;;8.82;100.00;97399.50;5077422;28;20953;-73
2022/01/01 08:17:24;;;;;;;6.97;6.27;;;;;;;8.72;100.00;97373.31;5094126;28;20463;-73
2022/01/01 08:19:51;;;;;;;22.57;15.00;;;;;;;8.87;100.00;97402.84;5077686;28;20471;-73
2022/01/01 08:22:18;;;;;;;8.30;6.03;;;;;;;8.74;100.00;97373.78;5077630;28;20434;-73
2022/01/01 08:24:46;;;;;;;8.50;7.10;;;;;;;8.80;100.00;97381.31;5098561;28;20451;-73
2022/01/01 08:27:12;;;;;;;6.97;5.80;;;;;;;8.75;100.00;97370.88;5091810;28;20470;-74
2022/01/01 08:29:39;;;;;;;8.00;7.30;;;;;;;8.83;100.00;97375.50;5073690;28;20489;-73
2022/01/01 08:32:06;;;;;;;7.13;6.43;;;;;;;8.92;100.00;97399.34;5073815;28;20459;-73
2022/01/01 08:34:33;;;;;;;8.10;6.03;;;;;;;8.82;100.00;97383.69;5073944;28;20423;-73
2022/01/01 08:37:00;;;;;;;8.23;5.47;;;;;;;8.93;100.00;97394.84;5091852;28;21011;-73
2022/01/01 08:39:26;;;;;;;7.43;6.60;;;;;;;8.91;100.00;97408.31;5073447;28;20463;-73
2022/01/01 08:41:53;;;;;;;10.83;7.17;;;;;;;8.89;100.00;97403.34;5073588;28;20481;-73
2022/01/01 08:44:20;;;;;;;11.43;8.37;;;;;;;8.75;100.00;97381.41;5091781;28;20467;-73
2022/01/01 08:46:46;;;;;;;12.63;7.37;;;;;;;8.82;100.00;97383.69;5096889;28;20441;-74
2022/01/01 08:49:13;;;;;;;6.80;6.10;;;;;;;8.83;100.00;97386.03;5076926;28;20450;-73
2022/01/01 08:51:44;;;;;;;7.53;6.80;;;;;;;8.93;100.00;97398.25;5112158;28;20486;-72
2022/01/01 08:54:13;;;;;;;7.87;7.07;;;;;;;8.95;100.00;97396.13;5076830;28;20486;-73
2022/01/01 08:56:41;;;;;;;8.10;7.30;;;;;;;8.95;100.00;97390.06;5093409;28;20435;-73
2022/01/01 08:59:07;;;;;;;7.00;6.30;;;;;;;8.93;100.00;97386.94;5093398;28;20463;-73
2022/01/01 09:01:34;;;;;;;9.40;6.17;;;;;;;8.83;100.00;97369.44;5076654;28;20443;-73
2022/01/01 09:04:01;;;;;;;9.30;6.90;;;;;;;8.84;100.00;97374.41;5093460;28;20423;-73
2022/01/01 09:06:28;;;;;;;11.53;9.77;;;;;;;9.07;100.00;97406.22;5076627;28;20533;-73
2022/01/01 09:08:54;;;;;;;19.80;9.30;;;;;;;8.64;100.00;97350.22;5071969;28;20906;-73
2022/01/01 09:11:22;;;;;;;9.60;8.73;;;;;;;9.06;100.00;97402.00;5073218;28;21057;-73
2022/01/01 09:13:49;;;;;;;7.57;6.83;;;;;;;8.92;100.00;97380.09;5073218;28;20471;-73
2022/01/01 09:16:18;;;;;;;6.70;5.90;;;;;;;9.10;100.00;97410.94;5073052;28;20493;-74
2022/01/01 09:18:46;;;;;;;9.30;6.83;;;;;;;9.11;100.00;97404.59;5073019;28;20465;-73
2022/01/01 09:21:14;;;;;;;6.50;5.73;;;;;;;9.13;100.00;97421.69;5073047;28;20459;-73
2022/01/01 09:23:41;;;;;;;7.70;6.13;;;;;;;9.00;100.00;97409.22;5073295;28;20447;-73
2022/01/01 09:26:08;;;;;;;8.20;6.57;;;;;;;9.06;100.00;97423.91;5056458;28;20492;-73
2022/01/01 09:28:35;;;;;;;7.60;5.93;;;;;;;9.16;100.00;97429.00;5090164;28;20509;-73
2022/01/01 09:31:02;;;;;;;8.10;6.20;;;;;;;9.08;100.00;97423.59;5073220;28;20459;-72
2022/01/01 09:33:30;;;;;;;6.20;5.60;;;;;;;9.01;100.00;97421.34;5072845;28;20558;-73
2022/01/01 09:35:58;;;;;;;6.70;6.00;;;;;;;9.06;100.00;97431.81;5073547;28;20468;-73
2022/01/01 09:38:25;;;;;;;5.40;4.87;;;;;;;9.07;100.00;97425.47;5060443;28;20512;-73
2022/01/01 09:40:56;;;;;;;7.70;5.77;;;;;;;9.14;100.00;97441.72;5095196;28;20962;-73
2022/01/01 09:43:24;;;;;;;5.87;5.27;;;;;;;9.13;100.00;97426.97;5095231;28;20411;-73
2022/01/01 09:45:53;;;;;;;8.40;6.67;;;;;;;9.16;100.00;97436.16;5076723;28;20475;-73
2022/01/01 09:48:21;;;;;;;8.73;6.23;;;;;;;9.23;100.00;97436.56;5076871;28;20550;-73
2022/01/01 09:50:53;;;;;;;5.57;5.07;;;;;;;9.22;100.00;97439.50;5076452;28;20502;-73
2022/01/01 09:53:23;;;;;;;7.10;4.93;;;;;;;9.16;100.00;97430.88;5060256;28;20435;-73
2022/01/01 09:55:51;;;;;;;6.00;5.43;;;;;;;9.25;100.00;97444.19;5076733;28;20489;-73
2022/01/01 09:58:22;;;;;;;6.07;5.20;;;;;;;9.28;100.00;97448.88;5076808;28;20457;-73
2022/01/01 10:00:50;;;;;;;10.03;6.17;;;;;;;9.18;100.00;97431.34;5076593;28;20466;-73
2022/01/01 10:03:17;;;;;;;8.27;5.43;;;;;;;9.14;100.00;97433.00;5059903;28;20486;-72
2022/01/01 10:06:00;;;;;;;9.30;5.73;;;;;;;9.07;100.00;97409.63;5094590;28;20427;-73
2022/01/01 10:08:28;;;;;;;6.10;5.43;;;;;;;9.13;100.00;97420.91;5059526;28;20512;-73
2022/01/01 10:10:55;;;;;;;4.60;4.20;;;;;;;9.27;100.00;97442.81;5060398;28;20459;-73
2022/01/01 10:13:41;;;;;;;7.67;6.87;;;;;;;9.26;100.00;97443.91;5094544;28;20995;-74
2022/01/01 10:16:10;;;;;;;5.93;5.43;;;;;;;9.30;100.00;97442.25;5076437;28;21278;-73
2022/01/01 10:18:39;;;;;;;7.47;4.63;;;;;;;9.32;100.00;97445.38;5076478;28;20447;-73
2022/01/01 10:21:08;;;;;;;6.73;6.13;;;;;;;9.35;100.00;97436.91;5094441;28;20972;-73
2022/01/01 10:23:37;;;;;;;6.67;5.20;;;;;;;9.33;100.00;97436.38;5076336;28;20488;-74
2022/01/01 10:29:15;;;;;;;7.23;5.20;;;;;;;9.31;100.00;97438.53;5113428;28;20466;-74
2022/01/01 10:31:59;;;;;;;5.43;4.93;;;;;;;9.31;100.00;97443.81;5079477;28;20469;-74
2022/01/01 10:34:32;;;;;;;9.73;5.07;;;;;;;9.29;100.00;97442.53;5096150;28;20431;-74
2022/01/01 10:37:17;;;;;;;7.00;5.77;;;;;;;9.29;100.00;97438.03;5096206;28;20438;-74
2022/01/01 10:39:51;;;;;;;6.30;4.50;;;;;;;9.35;100.00;97438.75;5079136;28;20477;-74
2022/01/01 10:42:18;;;;;;;9.40;5.17;;;;;;;9.38;100.00;97430.25;5096241;28;20849;-74
2022/01/01 10:44:50;;;;;;;5.37;4.87;;;;;;;9.38;100.00;97422.31;5096577;28;20477;-75
2022/01/01 10:47:25;;;;;;;6.30;5.70;;;;;;;9.34;100.00;97422.09;5094801;28;20496;-75
2022/01/01 10:50:14;;;;;;;6.57;5.20;;;;;;;9.30;100.00;97412.44;5075350;28;20454;-75
2022/01/01 10:52:46;;;;;;;6.50;5.53;;;;;;;9.46;100.00;97424.28;5091690;28;20450;-75
2022/01/01 10:55:15;;;;;;;6.90;5.63;;;;;;;9.47;100.00;97431.13;5095736;28;20483;-75
2022/01/01 10:57:55;;;;;;;7.13;5.77;;;;;;;9.36;100.00;97400.72;5113989;28;20502;-75
2022/01/01 11:00:24;;;;;;;5.90;5.40;;;;;;;9.50;100.00;97425.28;5079553;28;20423;-75
2022/01/01 11:02:54;;;;;;;7.23;5.33;;;;;;;9.48;100.00;97420.28;5095949;28;20499;-76
2022/01/01 11:05:27;;;;;;;7.23;6.03;;;;;;;9.44;100.00;97411.38;5114201;28;20484;-76
2022/01/01 11:07:55;;;;;;;9.80;7.00;;;;;;;9.57;100.00;97438.09;5095642;28;20874;-76
2022/01/01 11:10:23;;;;;;;11.83;8.00;;;;;;;9.46;100.00;97411.84;5113700;28;20486;-76
2022/01/01 11:12:51;;;;;;;10.43;7.90;;;;;;;9.41;100.00;97397.97;5095375;28;21018;-76
2022/01/01 11:15:18;;;;;;;6.60;5.33;;;;;;;9.48;100.00;97419.47;5095553;28;20474;-76
2022/01/01 11:17:46;;;;;;;5.70;5.00;;;;;;;9.59;100.00;97417.44;5113591;28;20499;-76
2022/01/01 11:20:13;;;;;;;5.47;4.50;;;;;;;9.67;100.00;97425.47;5095183;28;20479;-76
2022/01/01 11:22:46;;;;;;;5.80;3.60;;;;;;;9.65;100.00;97406.50;5095291;28;20902;-76
2022/01/01 11:25:13;;;;;;;6.60;4.70;;;;;;;9.63;100.00;97406.03;5095386;28;20454;-76
2022/01/01 11:27:40;;;;;;;5.27;4.33;;;;;;;9.61;100.00;97394.16;5113479;28;20450;-76
2022/01/01 11:30:08;;;;;;;5.13;4.60;;;;;;;9.69;100.00;97404.06;5094852;28;20465;-76
2022/01/01 11:32:37;;;;;;;5.90;4.70;;;;;;;9.75;100.00;97416.88;5095051;28;20968;-76
2022/01/01 11:35:09;;;;;;;8.40;6.17;;;;;;;9.71;100.00;97407.97;5113174;28;20462;-76
2022/01/01 11:38:09;;;;;;;5.73;4.20;;;;;;;9.85;100.00;97410.59;5113305;28;20450;-76
2022/01/01 11:40:44;;;;;;;5.50;4.87;;;;;;;9.80;100.00;97415.22;5094836;28;20427;-76
2022/01/01 11:43:36;;;;;;;5.40;4.10;;;;;;;9.86;100.00;97412.16;5113097;28;20488;-77
2022/01/01 11:46:10;;;;;;;11.07;4.87;;;;;;;9.90;100.00;97413.16;5094725;28;20422;-76
2022/01/01 11:48:41;;;;;;;6.97;5.17;;;;;;;9.92;100.00;97413.66;5094648;28;20461;-76